sensor_id;sensor_type;location;lat;lon;timestamp;P1;durP1;ratioP1;P2;durP2;ratioP2
40649;SDS011;26342;42.826;23.992;2023-03-19T00:02:11;0.45;;;0.45;;
40649;SDS011;26342;42.826;23.992;2023-03-19T00:04:37;0.50;;;0.50;;
40649;SDS011;26342;42.826;23.992;2023-03-19T00:07:02;1.23;;;1.13;;
40649;SDS011;26342;42.826;23.992;2023-03-19T00:09:28;0.65;;;0.60;;
40649;SDS011;26342;42.826;23.992;2023-03-19T00:11:53;2.15;;;0.70;;
40649;SDS011;26342;42.826;23.992;2023-03-19T00:14:19;0.65;;;0.63;;
40649;SDS011;26342;42.826;23.992;2023-03-19T00:16:44;0.45;;;0.40;;
40649;SDS011;26342;42.826;23.992;2023-03-19T00:19:10;2.00;;;0.85;;
40649;SDS011;26342;42.826;23.992;2023-03-19T00:21:35;1.27;;;1.20;;
40649;SDS011;26342;42.826;23.992;2023-03-19T00:24:01;1.23;;;1.10;;
40649;SDS011;26342;42.826;23.992;2023-03-19T00:26:30;3.10;;;1.65;;
40649;SDS011;26342;42.826;23.992;2023-03-19T00:28:56;3.58;;;3.05;;
40649;SDS011;26342;42.826;23.992;2023-03-19T00:31:23;2.33;;;1.13;;
40649;SDS011;26342;42.826;23.992;2023-03-19T00:33:49;7.57;;;3.20;;
40649;SDS011;26342;42.826;23.992;2023-03-19T00:36:15;2.60;;;2.38;;
40649;SDS011;26342;42.826;23.992;2023-03-19T00:38:41;9.20;;;3.35;;
40649;SDS011;26342;42.826;23.992;2023-03-19T00:41:07;6.00;;;3.80;;
40649;SDS011;26342;42.826;23.992;2023-03-19T00:43:33;5.90;;;3.50;;
40649;SDS011;26342;42.826;23.992;2023-03-19T00:45:59;2.33;;;2.20;;
40649;SDS011;26342;42.826;23.992;2023-03-19T00:48:24;4.68;;;1.98;;
40649;SDS011;26342;42.826;23.992;2023-03-19T00:50:50;5.18;;;2.28;;
40649;SDS011;26342;42.826;23.992;2023-03-19T00:53:16;9.05;;;5.18;;
40649;SDS011;26342;42.826;23.992;2023-03-19T00:55:41;4.47;;;3.10;;
40649;SDS011;26342;42.826;23.992;2023-03-19T00:58:07;5.63;;;3.78;;
40649;SDS011;26342;42.826;23.992;2023-03-19T01:00:34;6.60;;;3.83;;
40649;SDS011;26342;42.826;23.992;2023-03-19T01:03:00;1.67;;;1.58;;
40649;SDS011;26342;42.826;23.992;2023-03-19T01:05:26;4.30;;;1.80;;
40649;SDS011;26342;42.826;23.992;2023-03-19T01:07:52;1.95;;;1.75;;
40649;SDS011;26342;42.826;23.992;2023-03-19T01:10:18;2.78;;;2.00;;
40649;SDS011;26342;42.826;23.992;2023-03-19T01:12:44;5.95;;;1.83;;
40649;SDS011;26342;42.826;23.992;2023-03-19T01:15:10;2.88;;;2.17;;
40649;SDS011;26342;42.826;23.992;2023-03-19T01:17:36;2.47;;;1.10;;
40649;SDS011;26342;42.826;23.992;2023-03-19T01:20:02;1.15;;;0.68;;
40649;SDS011;26342;42.826;23.992;2023-03-19T01:22:34;0.77;;;0.63;;
40649;SDS011;26342;42.826;23.992;2023-03-19T01:25:01;2.17;;;0.90;;
40649;SDS011;26342;42.826;23.992;2023-03-19T01:27:27;0.77;;;0.52;;
40649;SDS011;26342;42.826;23.992;2023-03-19T01:29:52;1.08;;;0.50;;
40649;SDS011;26342;42.826;23.992;2023-03-19T01:32:18;0.45;;;0.30;;
40649;SDS011;26342;42.826;23.992;2023-03-19T01:34:43;0.45;;;0.45;;
40649;SDS011;26342;42.826;23.992;2023-03-19T01:37:08;1.23;;;1.08;;
40649;SDS011;26342;42.826;23.992;2023-03-19T01:39:34;2.15;;;2.03;;
40649;SDS011;26342;42.826;23.992;2023-03-19T01:42:00;5.90;;;1.23;;
40649;SDS011;26342;42.826;23.992;2023-03-19T01:44:27;1.92;;;1.40;;
40649;SDS011;26342;42.826;23.992;2023-03-19T01:46:55;4.32;;;2.53;;
40649;SDS011;26342;42.826;23.992;2023-03-19T01:49:23;4.47;;;1.83;;
40649;SDS011;26342;42.826;23.992;2023-03-19T01:51:51;1.55;;;1.00;;
40649;SDS011;26342;42.826;23.992;2023-03-19T01:54:18;1.85;;;1.75;;
40649;SDS011;26342;42.826;23.992;2023-03-19T01:56:47;0.82;;;0.82;;
40649;SDS011;26342;42.826;23.992;2023-03-19T01:59:35;1.85;;;0.85;;
40649;SDS011;26342;42.826;23.992;2023-03-19T02:02:27;2.70;;;1.77;;
40649;SDS011;26342;42.826;23.992;2023-03-19T02:04:57;3.83;;;2.00;;
40649;SDS011;26342;42.826;23.992;2023-03-19T02:07:35;2.30;;;1.98;;
40649;SDS011;26342;42.826;23.992;2023-03-19T02:10:03;1.80;;;1.70;;
40649;SDS011;26342;42.826;23.992;2023-03-19T02:12:31;2.05;;;1.80;;
40649;SDS011;26342;42.826;23.992;2023-03-19T02:14:57;11.93;;;3.15;;
40649;SDS011;26342;42.826;23.992;2023-03-19T02:17:22;5.03;;;4.07;;
40649;SDS011;26342;42.826;23.992;2023-03-19T02:19:49;5.10;;;2.03;;
40649;SDS011;26342;42.826;23.992;2023-03-19T02:22:22;6.07;;;2.97;;
40649;SDS011;26342;42.826;23.992;2023-03-19T02:25:05;6.72;;;3.00;;
40649;SDS011;26342;42.826;23.992;2023-03-19T02:27:35;2.03;;;1.77;;
40649;SDS011;26342;42.826;23.992;2023-03-19T02:30:16;9.07;;;2.35;;
40649;SDS011;26342;42.826;23.992;2023-03-19T02:32:59;2.90;;;2.58;;
40649;SDS011;26342;42.826;23.992;2023-03-19T02:35:25;5.70;;;3.20;;
40649;SDS011;26342;42.826;23.992;2023-03-19T02:37:55;6.63;;;2.78;;
40649;SDS011;26342;42.826;23.992;2023-03-19T02:40:25;2.33;;;1.65;;
40649;SDS011;26342;42.826;23.992;2023-03-19T02:42:55;2.78;;;2.08;;
40649;SDS011;26342;42.826;23.992;2023-03-19T02:45:20;8.38;;;3.47;;
40649;SDS011;26342;42.826;23.992;2023-03-19T02:47:47;12.52;;;5.18;;
40649;SDS011;26342;42.826;23.992;2023-03-19T02:50:12;3.22;;;2.35;;
40649;SDS011;26342;42.826;23.992;2023-03-19T02:52:37;1.08;;;1.02;;
40649;SDS011;26342;42.826;23.992;2023-03-19T02:55:03;2.45;;;2.25;;
40649;SDS011;26342;42.826;23.992;2023-03-19T02:57:29;3.05;;;1.52;;
40649;SDS011;26342;42.826;23.992;2023-03-19T02:59:54;2.38;;;2.17;;
40649;SDS011;26342;42.826;23.992;2023-03-19T03:02:20;4.28;;;2.00;;
40649;SDS011;26342;42.826;23.992;2023-03-19T03:04:45;3.50;;;2.83;;
40649;SDS011;26342;42.826;23.992;2023-03-19T03:07:10;2.63;;;2.40;;
40649;SDS011;26342;42.826;23.992;2023-03-19T03:09:36;15.60;;;4.60;;
40649;SDS011;26342;42.826;23.992;2023-03-19T03:12:01;5.80;;;3.17;;
40649;SDS011;26342;42.826;23.992;2023-03-19T03:14:27;4.53;;;2.67;;
40649;SDS011;26342;42.826;23.992;2023-03-19T03:16:52;3.95;;;2.15;;
40649;SDS011;26342;42.826;23.992;2023-03-19T03:19:18;3.20;;;1.95;;
40649;SDS011;26342;42.826;23.992;2023-03-19T03:21:44;3.45;;;2.20;;
40649;SDS011;26342;42.826;23.992;2023-03-19T03:24:09;2.42;;;1.58;;
40649;SDS011;26342;42.826;23.992;2023-03-19T03:26:35;2.35;;;1.50;;
40649;SDS011;26342;42.826;23.992;2023-03-19T03:29:03;1.63;;;1.52;;
40649;SDS011;26342;42.826;23.992;2023-03-19T03:31:29;2.90;;;1.88;;
40649;SDS011;26342;42.826;23.992;2023-03-19T03:33:55;2.50;;;2.30;;
40649;SDS011;26342;42.826;23.992;2023-03-19T03:36:20;6.57;;;4.63;;
40649;SDS011;26342;42.826;23.992;2023-03-19T03:38:46;7.05;;;3.22;;
40649;SDS011;26342;42.826;23.992;2023-03-19T03:41:13;1.83;;;1.35;;
40649;SDS011;26342;42.826;23.992;2023-03-19T03:43:38;0.98;;;0.88;;
40649;SDS011;26342;42.826;23.992;2023-03-19T03:46:05;2.20;;;1.70;;
40649;SDS011;26342;42.826;23.992;2023-03-19T03:48:31;2.42;;;2.22;;
40649;SDS011;26342;42.826;23.992;2023-03-19T03:50:57;3.97;;;1.80;;
40649;SDS011;26342;42.826;23.992;2023-03-19T03:53:22;1.67;;;1.58;;
40649;SDS011;26342;42.826;23.992;2023-03-19T03:55:48;2.33;;;2.13;;
40649;SDS011;26342;42.826;23.992;2023-03-19T03:58:13;2.10;;;1.75;;
40649;SDS011;26342;42.826;23.992;2023-03-19T04:00:38;2.65;;;2.35;;
40649;SDS011;26342;42.826;23.992;2023-03-19T04:03:04;5.63;;;1.83;;
40649;SDS011;26342;42.826;23.992;2023-03-19T04:05:29;4.95;;;2.88;;
40649;SDS011;26342;42.826;23.992;2023-03-19T04:07:55;3.13;;;1.35;;
40649;SDS011;26342;42.826;23.992;2023-03-19T04:10:21;3.92;;;1.75;;
40649;SDS011;26342;42.826;23.992;2023-03-19T04:12:47;2.05;;;1.85;;
40649;SDS011;26342;42.826;23.992;2023-03-19T04:15:13;15.27;;;3.42;;
40649;SDS011;26342;42.826;23.992;2023-03-19T04:17:39;3.53;;;3.20;;
40649;SDS011;26342;42.826;23.992;2023-03-19T04:20:06;2.17;;;1.77;;
40649;SDS011;26342;42.826;23.992;2023-03-19T04:22:31;2.78;;;2.17;;
40649;SDS011;26342;42.826;23.992;2023-03-19T04:24:57;2.92;;;1.70;;
40649;SDS011;26342;42.826;23.992;2023-03-19T04:27:22;4.72;;;3.55;;
40649;SDS011;26342;42.826;23.992;2023-03-19T04:29:48;3.17;;;2.95;;
40649;SDS011;26342;42.826;23.992;2023-03-19T04:32:13;3.40;;;3.00;;
40649;SDS011;26342;42.826;23.992;2023-03-19T04:34:39;4.85;;;2.72;;
40649;SDS011;26342;42.826;23.992;2023-03-19T04:37:05;1.90;;;1.13;;
40649;SDS011;26342;42.826;23.992;2023-03-19T04:39:31;2.13;;;1.77;;
40649;SDS011;26342;42.826;23.992;2023-03-19T04:41:57;2.45;;;2.00;;
40649;SDS011;26342;42.826;23.992;2023-03-19T04:44:23;1.80;;;1.25;;
40649;SDS011;26342;42.826;23.992;2023-03-19T04:46:48;6.32;;;2.55;;
40649;SDS011;26342;42.826;23.992;2023-03-19T04:49:14;7.60;;;2.08;;
40649;SDS011;26342;42.826;23.992;2023-03-19T04:51:39;2.75;;;2.10;;
40649;SDS011;26342;42.826;23.992;2023-03-19T04:54:06;2.58;;;1.33;;
40649;SDS011;26342;42.826;23.992;2023-03-19T04:56:31;8.25;;;4.15;;
40649;SDS011;26342;42.826;23.992;2023-03-19T04:58:57;6.22;;;3.05;;
40649;SDS011;26342;42.826;23.992;2023-03-19T05:01:22;5.90;;;4.20;;
40649;SDS011;26342;42.826;23.992;2023-03-19T05:03:48;4.93;;;4.47;;
40649;SDS011;26342;42.826;23.992;2023-03-19T05:06:14;1.25;;;1.15;;
40649;SDS011;26342;42.826;23.992;2023-03-19T05:08:40;4.65;;;2.08;;
40649;SDS011;26342;42.826;23.992;2023-03-19T05:11:06;0.28;;;0.28;;
40649;SDS011;26342;42.826;23.992;2023-03-19T05:13:31;2.13;;;1.38;;
40649;SDS011;26342;42.826;23.992;2023-03-19T05:15:57;0.60;;;0.60;;
40649;SDS011;26342;42.826;23.992;2023-03-19T05:18:22;2.67;;;1.58;;
40649;SDS011;26342;42.826;23.992;2023-03-19T05:20:47;1.70;;;1.15;;
40649;SDS011;26342;42.826;23.992;2023-03-19T05:23:13;4.72;;;3.42;;
40649;SDS011;26342;42.826;23.992;2023-03-19T05:25:38;3.92;;;2.75;;
40649;SDS011;26342;42.826;23.992;2023-03-19T05:28:04;4.53;;;3.42;;
40649;SDS011;26342;42.826;23.992;2023-03-19T05:30:31;2.80;;;2.45;;
40649;SDS011;26342;42.826;23.992;2023-03-19T05:32:57;3.22;;;1.73;;
40649;SDS011;26342;42.826;23.992;2023-03-19T05:35:24;9.65;;;4.50;;
40649;SDS011;26342;42.826;23.992;2023-03-19T05:37:51;8.60;;;4.22;;
40649;SDS011;26342;42.826;23.992;2023-03-19T05:40:17;6.20;;;3.67;;
40649;SDS011;26342;42.826;23.992;2023-03-19T05:42:43;6.18;;;4.40;;
40649;SDS011;26342;42.826;23.992;2023-03-19T05:45:08;6.32;;;5.07;;
40649;SDS011;26342;42.826;23.992;2023-03-19T05:47:35;6.40;;;4.40;;
40649;SDS011;26342;42.826;23.992;2023-03-19T05:50:01;7.63;;;6.88;;
40649;SDS011;26342;42.826;23.992;2023-03-19T05:52:26;11.32;;;6.65;;
40649;SDS011;26342;42.826;23.992;2023-03-19T05:54:52;10.25;;;6.75;;
40649;SDS011;26342;42.826;23.992;2023-03-19T05:57:17;12.60;;;6.97;;
40649;SDS011;26342;42.826;23.992;2023-03-19T05:59:42;3.88;;;3.58;;
40649;SDS011;26342;42.826;23.992;2023-03-19T06:02:08;6.93;;;3.47;;
40649;SDS011;26342;42.826;23.992;2023-03-19T06:04:34;5.97;;;4.38;;
40649;SDS011;26342;42.826;23.992;2023-03-19T06:06:59;5.57;;;4.00;;
40649;SDS011;26342;42.826;23.992;2023-03-19T06:09:25;9.30;;;3.65;;
40649;SDS011;26342;42.826;23.992;2023-03-19T06:11:50;4.97;;;4.47;;
40649;SDS011;26342;42.826;23.992;2023-03-19T06:14:16;5.15;;;3.80;;
40649;SDS011;26342;42.826;23.992;2023-03-19T06:16:41;2.38;;;2.17;;
40649;SDS011;26342;42.826;23.992;2023-03-19T06:19:06;3.38;;;2.65;;
40649;SDS011;26342;42.826;23.992;2023-03-19T06:21:32;2.47;;;2.28;;
40649;SDS011;26342;42.826;23.992;2023-03-19T06:23:57;2.17;;;1.80;;
40649;SDS011;26342;42.826;23.992;2023-03-19T06:26:23;1.90;;;1.73;;
40649;SDS011;26342;42.826;23.992;2023-03-19T06:28:49;2.65;;;2.25;;
40649;SDS011;26342;42.826;23.992;2023-03-19T06:31:14;4.18;;;1.88;;
40649;SDS011;26342;42.826;23.992;2023-03-19T06:33:40;2.70;;;2.50;;
40649;SDS011;26342;42.826;23.992;2023-03-19T06:36:06;8.18;;;4.10;;
40649;SDS011;26342;42.826;23.992;2023-03-19T06:38:31;2.78;;;2.58;;
40649;SDS011;26342;42.826;23.992;2023-03-19T06:40:57;5.50;;;2.85;;
40649;SDS011;26342;42.826;23.992;2023-03-19T06:43:22;3.80;;;3.50;;
40649;SDS011;26342;42.826;23.992;2023-03-19T06:45:48;3.70;;;2.50;;
40649;SDS011;26342;42.826;23.992;2023-03-19T06:48:13;4.10;;;2.65;;
40649;SDS011;26342;42.826;23.992;2023-03-19T06:50:39;4.00;;;3.25;;
40649;SDS011;26342;42.826;23.992;2023-03-19T06:53:05;2.92;;;2.20;;
40649;SDS011;26342;42.826;23.992;2023-03-19T06:55:30;2.45;;;2.30;;
40649;SDS011;26342;42.826;23.992;2023-03-19T06:57:55;3.55;;;3.25;;
40649;SDS011;26342;42.826;23.992;2023-03-19T07:00:21;2.08;;;1.88;;
40649;SDS011;26342;42.826;23.992;2023-03-19T07:02:46;4.43;;;2.45;;
40649;SDS011;26342;42.826;23.992;2023-03-19T07:05:12;4.63;;;1.90;;
40649;SDS011;26342;42.826;23.992;2023-03-19T07:07:37;2.83;;;2.53;;
40649;SDS011;26342;42.826;23.992;2023-03-19T07:10:03;2.45;;;2.25;;
40649;SDS011;26342;42.826;23.992;2023-03-19T07:12:29;3.85;;;2.55;;
40649;SDS011;26342;42.826;23.992;2023-03-19T07:14:55;1.15;;;1.05;;
40649;SDS011;26342;42.826;23.992;2023-03-19T07:17:21;2.10;;;1.45;;
40649;SDS011;26342;42.826;23.992;2023-03-19T07:19:47;2.25;;;1.45;;
40649;SDS011;26342;42.826;23.992;2023-03-19T07:22:12;0.88;;;0.68;;
40649;SDS011;26342;42.826;23.992;2023-03-19T07:24:38;1.48;;;1.38;;
40649;SDS011;26342;42.826;23.992;2023-03-19T07:27:03;1.75;;;0.60;;
40649;SDS011;26342;42.826;23.992;2023-03-19T07:29:29;0.35;;;0.35;;
40649;SDS011;26342;42.826;23.992;2023-03-19T07:31:55;1.08;;;0.65;;
40649;SDS011;26342;42.826;23.992;2023-03-19T07:34:20;2.47;;;1.15;;
40649;SDS011;26342;42.826;23.992;2023-03-19T07:36:47;1.10;;;0.88;;
40649;SDS011;26342;42.826;23.992;2023-03-19T07:39:12;0.98;;;0.85;;
40649;SDS011;26342;42.826;23.992;2023-03-19T07:41:38;2.00;;;1.33;;
40649;SDS011;26342;42.826;23.992;2023-03-19T07:44:03;2.55;;;1.05;;
40649;SDS011;26342;42.826;23.992;2023-03-19T07:46:29;0.52;;;0.52;;
40649;SDS011;26342;42.826;23.992;2023-03-19T07:48:54;0.77;;;0.63;;
40649;SDS011;26342;42.826;23.992;2023-03-19T07:51:20;4.70;;;2.22;;
40649;SDS011;26342;42.826;23.992;2023-03-19T07:53:45;1.70;;;1.30;;
40649;SDS011;26342;42.826;23.992;2023-03-19T07:56:11;2.78;;;1.42;;
40649;SDS011;26342;42.826;23.992;2023-03-19T07:58:37;3.08;;;2.05;;
40649;SDS011;26342;42.826;23.992;2023-03-19T08:01:02;1.90;;;1.60;;
40649;SDS011;26342;42.826;23.992;2023-03-19T08:03:28;2.58;;;1.80;;
40649;SDS011;26342;42.826;23.992;2023-03-19T08:05:53;2.88;;;2.67;;
40649;SDS011;26342;42.826;23.992;2023-03-19T08:08:19;1.88;;;1.77;;
40649;SDS011;26342;42.826;23.992;2023-03-19T08:10:44;2.83;;;2.15;;
40649;SDS011;26342;42.826;23.992;2023-03-19T08:13:11;2.35;;;2.15;;
40649;SDS011;26342;42.826;23.992;2023-03-19T08:15:38;0.35;;;0.35;;
40649;SDS011;26342;42.826;23.992;2023-03-19T08:18:03;2.45;;;1.35;;
40649;SDS011;26342;42.826;23.992;2023-03-19T08:20:30;1.42;;;1.23;;
40649;SDS011;26342;42.826;23.992;2023-03-19T08:22:56;2.53;;;1.50;;
40649;SDS011;26342;42.826;23.992;2023-03-19T08:25:22;2.17;;;1.42;;
40649;SDS011;26342;42.826;23.992;2023-03-19T08:27:48;2.78;;;1.13;;
40649;SDS011;26342;42.826;23.992;2023-03-19T08:30:14;4.28;;;1.00;;
40649;SDS011;26342;42.826;23.992;2023-03-19T08:32:40;1.48;;;0.95;;
40649;SDS011;26342;42.826;23.992;2023-03-19T08:35:06;3.70;;;1.40;;
40649;SDS011;26342;42.826;23.992;2023-03-19T08:37:32;0.73;;;0.60;;
40649;SDS011;26342;42.826;23.992;2023-03-19T08:39:58;1.02;;;0.77;;
40649;SDS011;26342;42.826;23.992;2023-03-19T08:42:23;1.90;;;1.08;;
40649;SDS011;26342;42.826;23.992;2023-03-19T08:44:49;0.50;;;0.50;;
40649;SDS011;26342;42.826;23.992;2023-03-19T08:47:14;2.15;;;1.15;;
40649;SDS011;26342;42.826;23.992;2023-03-19T08:49:40;0.85;;;0.73;;
40649;SDS011;26342;42.826;23.992;2023-03-19T08:52:06;0.35;;;0.35;;
40649;SDS011;26342;42.826;23.992;2023-03-19T08:54:31;1.70;;;0.68;;
40649;SDS011;26342;42.826;23.992;2023-03-19T08:56:58;0.73;;;0.73;;
40649;SDS011;26342;42.826;23.992;2023-03-19T08:59:24;1.25;;;0.90;;
40649;SDS011;26342;42.826;23.992;2023-03-19T09:01:50;0.60;;;0.60;;
40649;SDS011;26342;42.826;23.992;2023-03-19T09:04:16;1.50;;;0.28;;
40649;SDS011;26342;42.826;23.992;2023-03-19T09:06:42;0.47;;;0.28;;
40649;SDS011;26342;42.826;23.992;2023-03-19T09:09:09;0.40;;;0.40;;
40649;SDS011;26342;42.826;23.992;2023-03-19T09:11:34;1.13;;;0.43;;
40649;SDS011;26342;42.826;23.992;2023-03-19T09:14:00;2.45;;;0.68;;
40649;SDS011;26342;42.826;23.992;2023-03-19T09:16:25;0.43;;;0.32;;
40649;SDS011;26342;42.826;23.992;2023-03-19T09:18:51;0.30;;;0.20;;
40649;SDS011;26342;42.826;23.992;2023-03-19T09:21:16;0.35;;;0.35;;
40649;SDS011;26342;42.826;23.992;2023-03-19T09:23:42;0.10;;;0.10;;
40649;SDS011;26342;42.826;23.992;2023-03-19T09:26:07;1.17;;;0.40;;
40649;SDS011;26342;42.826;23.992;2023-03-19T09:28:33;0.28;;;0.28;;
40649;SDS011;26342;42.826;23.992;2023-03-19T09:30:58;0.40;;;0.40;;
40649;SDS011;26342;42.826;23.992;2023-03-19T09:33:24;0.55;;;0.30;;
40649;SDS011;26342;42.826;23.992;2023-03-19T09:35:51;0.65;;;0.60;;
40649;SDS011;26342;42.826;23.992;2023-03-19T09:38:18;0.52;;;0.52;;
40649;SDS011;26342;42.826;23.992;2023-03-19T09:40:48;0.65;;;0.60;;
40649;SDS011;26342;42.826;23.992;2023-03-19T09:46:17;0.30;;;0.30;;
40649;SDS011;26342;42.826;23.992;2023-03-19T09:48:49;0.30;;;0.30;;
40649;SDS011;26342;42.826;23.992;2023-03-19T09:51:49;0.85;;;0.55;;
40649;SDS011;26342;42.826;23.992;2023-03-19T09:57:07;1.60;;;0.68;;
40649;SDS011;26342;42.826;23.992;2023-03-19T09:59:35;0.73;;;0.57;;
40649;SDS011;26342;42.826;23.992;2023-03-19T10:05:02;0.20;;;0.20;;
40649;SDS011;26342;42.826;23.992;2023-03-19T10:13:20;0.32;;;0.32;;
40649;SDS011;26342;42.826;23.992;2023-03-19T10:15:49;0.10;;;0.10;;
40649;SDS011;26342;42.826;23.992;2023-03-19T10:18:21;0.22;;;0.22;;
40649;SDS011;26342;42.826;23.992;2023-03-19T10:20:58;0.13;;;0.13;;
40649;SDS011;26342;42.826;23.992;2023-03-19T10:25:56;0.22;;;0.22;;
40649;SDS011;26342;42.826;23.992;2023-03-19T10:28:25;0.20;;;0.20;;
40649;SDS011;26342;42.826;23.992;2023-03-19T10:36:57;0.17;;;0.17;;
40649;SDS011;26342;42.826;23.992;2023-03-19T10:39:42;0.20;;;0.20;;
40649;SDS011;26342;42.826;23.992;2023-03-19T10:42:15;0.10;;;0.10;;
40649;SDS011;26342;42.826;23.992;2023-03-19T10:45:02;0.65;;;0.52;;
40649;SDS011;26342;42.826;23.992;2023-03-19T10:47:34;0.35;;;0.35;;
40649;SDS011;26342;42.826;23.992;2023-03-19T10:50:03;1.42;;;0.57;;
40649;SDS011;26342;42.826;23.992;2023-03-19T10:52:33;0.30;;;0.30;;
40649;SDS011;26342;42.826;23.992;2023-03-19T10:55:05;0.43;;;0.43;;
40649;SDS011;26342;42.826;23.992;2023-03-19T10:57:41;0.28;;;0.28;;
40649;SDS011;26342;42.826;23.992;2023-03-19T11:00:15;0.68;;;0.55;;
40649;SDS011;26342;42.826;23.992;2023-03-19T11:02:51;0.57;;;0.38;;
40649;SDS011;26342;42.826;23.992;2023-03-19T11:08:00;0.77;;;0.77;;
40649;SDS011;26342;42.826;23.992;2023-03-19T11:10:34;1.13;;;0.90;;
40649;SDS011;26342;42.826;23.992;2023-03-19T11:13:45;0.45;;;0.40;;
40649;SDS011;26342;42.826;23.992;2023-03-19T11:15:50;0.80;;;0.63;;
40649;SDS011;26342;42.826;23.992;2023-03-19T11:18:21;0.60;;;0.57;;
40649;SDS011;26342;42.826;23.992;2023-03-19T11:20:48;0.20;;;0.20;;
40649;SDS011;26342;42.826;23.992;2023-03-19T11:23:19;2.05;;;0.75;;
40649;SDS011;26342;42.826;23.992;2023-03-19T11:28:15;0.70;;;0.45;;
40649;SDS011;26342;42.826;23.992;2023-03-19T11:30:59;0.43;;;0.30;;
40649;SDS011;26342;42.826;23.992;2023-03-19T11:36:41;0.10;;;0.10;;
40649;SDS011;26342;42.826;23.992;2023-03-19T11:47:22;0.90;;;0.82;;
40649;SDS011;26342;42.826;23.992;2023-03-19T11:49:58;0.40;;;0.40;;
40649;SDS011;26342;42.826;23.992;2023-03-19T11:52:30;0.50;;;0.50;;
40649;SDS011;26342;42.826;23.992;2023-03-19T11:55:14;0.40;;;0.30;;
40649;SDS011;26342;42.826;23.992;2023-03-19T11:58:10;0.73;;;0.52;;
40649;SDS011;26342;42.826;23.992;2023-03-19T12:00:55;0.20;;;0.20;;
40649;SDS011;26342;42.826;23.992;2023-03-19T12:06:27;0.10;;;0.10;;
40649;SDS011;26342;42.826;23.992;2023-03-19T12:09:03;0.35;;;0.35;;
40649;SDS011;26342;42.826;23.992;2023-03-19T12:11:38;0.20;;;0.20;;
40649;SDS011;26342;42.826;23.992;2023-03-19T12:14:23;0.22;;;0.22;;
40649;SDS011;26342;42.826;23.992;2023-03-19T12:22:50;1.50;;;0.73;;
40649;SDS011;26342;42.826;23.992;2023-03-19T12:25:42;2.45;;;0.55;;
40649;SDS011;26342;42.826;23.992;2023-03-19T12:28:25;0.20;;;0.20;;
40649;SDS011;26342;42.826;23.992;2023-03-19T12:31:02;0.20;;;0.20;;
40649;SDS011;26342;42.826;23.992;2023-03-19T12:36:34;0.35;;;0.20;;
40649;SDS011;26342;42.826;23.992;2023-03-19T12:39:11;0.57;;;0.38;;
40649;SDS011;26342;42.826;23.992;2023-03-19T12:41:43;0.17;;;0.17;;
40649;SDS011;26342;42.826;23.992;2023-03-19T12:44:14;0.10;;;0.10;;
40649;SDS011;26342;42.826;23.992;2023-03-19T12:47:07;0.75;;;0.35;;
40649;SDS011;26342;42.826;23.992;2023-03-19T12:49:37;0.73;;;0.73;;
40649;SDS011;26342;42.826;23.992;2023-03-19T12:58:00;0.10;;;0.10;;
40649;SDS011;26342;42.826;23.992;2023-03-19T13:03:24;0.20;;;0.20;;
40649;SDS011;26342;42.826;23.992;2023-03-19T13:06:05;0.25;;;0.25;;
40649;SDS011;26342;42.826;23.992;2023-03-19T13:08:44;1.45;;;0.40;;
40649;SDS011;26342;42.826;23.992;2023-03-19T13:14:03;0.32;;;0.30;;
40649;SDS011;26342;42.826;23.992;2023-03-19T13:16:40;0.00;;;0.00;;
40649;SDS011;26342;42.826;23.992;2023-03-19T13:19:25;0.10;;;0.10;;
40649;SDS011;26342;42.826;23.992;2023-03-19T13:22:00;0.13;;;0.13;;
40649;SDS011;26342;42.826;23.992;2023-03-19T13:24:32;0.73;;;0.60;;
40649;SDS011;26342;42.826;23.992;2023-03-19T13:26:59;0.13;;;0.13;;
40649;SDS011;26342;42.826;23.992;2023-03-19T13:29:29;0.47;;;0.40;;
40649;SDS011;26342;42.826;23.992;2023-03-19T13:34:48;0.10;;;0.10;;
40649;SDS011;26342;42.826;23.992;2023-03-19T13:37:14;0.63;;;0.20;;
40649;SDS011;26342;42.826;23.992;2023-03-19T13:39:42;1.98;;;0.88;;
40649;SDS011;26342;42.826;23.992;2023-03-19T13:44:50;1.35;;;0.65;;
40649;SDS011;26342;42.826;23.992;2023-03-19T14:03:51;2.95;;;0.50;;
40649;SDS011;26342;42.826;23.992;2023-03-19T14:06:03;2.28;;;1.73;;
40649;SDS011;26342;42.826;23.992;2023-03-19T14:08:33;0.85;;;0.57;;
40649;SDS011;26342;42.826;23.992;2023-03-19T14:11:08;0.80;;;0.55;;
40649;SDS011;26342;42.826;23.992;2023-03-19T14:13:41;1.23;;;0.35;;
40649;SDS011;26342;42.826;23.992;2023-03-19T14:19:08;0.35;;;0.35;;
40649;SDS011;26342;42.826;23.992;2023-03-19T14:24:19;3.20;;;1.10;;
40649;SDS011;26342;42.826;23.992;2023-03-19T14:26:52;1.40;;;0.60;;
40649;SDS011;26342;42.826;23.992;2023-03-19T14:29:18;4.13;;;0.75;;
40649;SDS011;26342;42.826;23.992;2023-03-19T14:31:49;0.65;;;0.55;;
40649;SDS011;26342;42.826;23.992;2023-03-19T14:37:31;1.85;;;0.40;;
40649;SDS011;26342;42.826;23.992;2023-03-19T14:46:22;3.42;;;1.58;;
40649;SDS011;26342;42.826;23.992;2023-03-19T14:53:54;6.80;;;1.77;;
40649;SDS011;26342;42.826;23.992;2023-03-19T14:56:29;15.95;;;7.85;;
40649;SDS011;26342;42.826;23.992;2023-03-19T14:58:57;8.77;;;5.35;;
40649;SDS011;26342;42.826;23.992;2023-03-19T15:01:30;4.93;;;3.55;;
40649;SDS011;26342;42.826;23.992;2023-03-19T15:04:02;5.20;;;2.42;;
40649;SDS011;26342;42.826;23.992;2023-03-19T15:06:33;1.95;;;1.02;;
40649;SDS011;26342;42.826;23.992;2023-03-19T15:09:04;1.77;;;0.93;;
40649;SDS011;26342;42.826;23.992;2023-03-19T15:19:43;1.02;;;0.93;;
40649;SDS011;26342;42.826;23.992;2023-03-19T15:22:18;1.70;;;1.05;;
40649;SDS011;26342;42.826;23.992;2023-03-19T15:24:44;2.30;;;1.95;;
40649;SDS011;26342;42.826;23.992;2023-03-19T15:27:21;3.63;;;3.30;;
40649;SDS011;26342;42.826;23.992;2023-03-19T15:29:50;6.85;;;2.20;;
40649;SDS011;26342;42.826;23.992;2023-03-19T15:35:03;7.07;;;5.70;;
40649;SDS011;26342;42.826;23.992;2023-03-19T15:37:30;5.15;;;4.35;;
40649;SDS011;26342;42.826;23.992;2023-03-19T15:40:02;3.22;;;2.97;;
40649;SDS011;26342;42.826;23.992;2023-03-19T15:42:34;5.15;;;1.63;;
40649;SDS011;26342;42.826;23.992;2023-03-19T15:45:06;5.72;;;2.78;;
40649;SDS011;26342;42.826;23.992;2023-03-19T15:47:42;4.88;;;3.75;;
40649;SDS011;26342;42.826;23.992;2023-03-19T15:50:17;4.72;;;1.77;;
40649;SDS011;26342;42.826;23.992;2023-03-19T15:52:47;14.43;;;2.35;;
40649;SDS011;26342;42.826;23.992;2023-03-19T15:55:16;2.92;;;1.50;;
40649;SDS011;26342;42.826;23.992;2023-03-19T15:57:42;2.70;;;2.03;;
40649;SDS011;26342;42.826;23.992;2023-03-19T16:00:09;3.60;;;1.38;;
40649;SDS011;26342;42.826;23.992;2023-03-19T16:02:41;2.58;;;2.30;;
40649;SDS011;26342;42.826;23.992;2023-03-19T16:05:23;4.35;;;3.00;;
40649;SDS011;26342;42.826;23.992;2023-03-19T16:07:58;4.82;;;3.00;;
40649;SDS011;26342;42.826;23.992;2023-03-19T16:12:57;6.45;;;2.03;;
40649;SDS011;26342;42.826;23.992;2023-03-19T16:18:20;8.57;;;4.05;;
40649;SDS011;26342;42.826;23.992;2023-03-19T16:20:51;7.28;;;2.97;;
40649;SDS011;26342;42.826;23.992;2023-03-19T16:23:18;9.73;;;4.38;;
40649;SDS011;26342;42.826;23.992;2023-03-19T16:25:45;4.07;;;3.10;;
40649;SDS011;26342;42.826;23.992;2023-03-19T16:28:18;4.03;;;3.33;;
40649;SDS011;26342;42.826;23.992;2023-03-19T16:30:47;5.90;;;3.20;;
40649;SDS011;26342;42.826;23.992;2023-03-19T16:33:15;7.45;;;5.38;;
40649;SDS011;26342;42.826;23.992;2023-03-19T16:35:40;11.00;;;5.95;;
40649;SDS011;26342;42.826;23.992;2023-03-19T16:38:21;11.38;;;4.75;;
40649;SDS011;26342;42.826;23.992;2023-03-19T16:40:49;2.15;;;1.98;;
40649;SDS011;26342;42.826;23.992;2023-03-19T16:43:35;2.80;;;2.22;;